Time;durP1;ratioP1;P1;durP2;ratioP2;P2;SDS_P1;SDS_P2;PMS_P1;PMS_P2;Temp;Humidity;BMP_temperature;BMP_pressure;BME280_temperature;BME280_humidity;BME280_pressure;Samples;Min_cycle;Max_cycle;Signal;HPM_P1;HPM_P2
2023/06/22 00:01:23;;;;;;;9.65;7.68;;;;;;;23.31;48.19;101813.22;4977352;28;114704;-72
2023/06/22 00:03:51;;;;;;;9.93;6.78;;;;;;;23.29;48.01;101813.34;4980575;28;113386;-72
2023/06/22 00:06:18;;;;;;;10.88;7.50;;;;;;;23.26;48.38;101807.34;5006119;28;123928;-72
2023/06/22 00:08:45;;;;;;;11.40;7.88;;;;;;;23.24;48.53;101809.31;4997397;28;123801;-72
2023/06/22 00:11:12;;;;;;;10.80;8.38;;;;;;;23.21;48.67;101809.59;4994613;28;113996;-70
2023/06/22 00:13:39;;;;;;;14.20;9.30;;;;;;;23.17;48.63;101806.28;4972580;28;115224;-70
2023/06/22 00:16:07;;;;;;;13.40;9.13;;;;;;;23.13;48.88;101797.56;4988037;28;124733;-70
2023/06/22 00:18:34;;;;;;;12.93;9.15;;;;;;;23.10;48.92;101808.63;4997158;28;122960;-70
2023/06/22 00:21:01;;;;;;;11.75;8.82;;;;;;;23.08;49.21;101810.59;4985583;28;113987;-70
2023/06/22 00:23:28;;;;;;;13.98;8.48;;;;;;;23.07;49.21;101814.25;4969925;28;112302;-70
2023/06/22 00:25:55;;;;;;;13.30;8.82;;;;;;;23.08;49.31;101809.75;4992378;28;124717;-70
2023/06/22 00:28:22;;;;;;;11.80;8.95;;;;;;;23.06;49.24;101812.56;4985877;28;122410;-70
2023/06/22 00:30:49;;;;;;;11.23;9.23;;;;;;;23.05;49.51;101805.44;4995098;28;114140;-70
2023/06/22 00:33:18;;;;;;;12.60;9.13;;;;;;;23.06;49.57;101817.13;4972650;28;115511;-70
2023/06/22 00:35:45;;;;;;;13.98;8.88;;;;;;;23.05;49.42;101805.44;5005208;28;124436;-70
2023/06/22 00:38:12;;;;;;;12.27;9.07;;;;;;;23.05;49.71;101804.56;4990305;28;123748;-70
2023/06/22 00:40:41;;;;;;;12.77;9.63;;;;;;;23.03;49.62;101807.41;4990411;28;114379;-70
2023/06/22 00:43:08;;;;;;;13.45;9.40;;;;;;;23.01;49.67;101803.94;4964387;28;113013;-70
2023/06/22 00:45:36;;;;;;;11.95;9.55;;;;;;;23.01;49.74;101812.03;4992418;28;123368;-70
2023/06/22 00:48:04;;;;;;;11.90;9.45;;;;;;;23.01;49.59;101809.34;4990829;28;123873;-70
2023/06/22 00:50:34;;;;;;;14.20;10.10;;;;;;;23.00;49.73;101807.66;4971210;28;113625;-70
2023/06/22 00:53:08;;;;;;;15.05;9.65;;;;;;;22.98;49.74;101804.22;5003318;28;113865;-70
2023/06/22 00:55:38;;;;;;;11.43;9.77;;;;;;;22.96;49.75;101800.75;4971482;28;124436;-70
2023/06/22 00:58:10;;;;;;;13.93;9.43;;;;;;;22.93;49.87;101801.03;4971687;28;124086;-70
2023/06/22 01:00:38;;;;;;;14.10;10.07;;;;;;;22.92;50.02;101799.28;4989341;28;114291;-69
2023/06/22 01:03:08;;;;;;;13.90;10.13;;;;;;;22.89;50.00;101788.75;4990103;28;114227;-70
2023/06/22 01:05:38;;;;;;;13.02;10.43;;;;;;;22.88;50.12;101797.84;4972174;28;123325;-70
2023/06/22 01:08:51;;;;;;;16.30;10.45;;;;;;;22.83;49.90;101794.63;4972318;28;124088;-70
2023/06/22 01:11:26;;;;;;;15.15;10.15;;;;;;;22.79;50.17;101783.22;4898046;28;114476;-71
2023/06/22 01:14:22;;;;;;;13.57;10.25;;;;;;;22.76;50.15;101779.94;4893063;28;113276;-70
2023/06/22 01:16:54;;;;;;;13.73;10.68;;;;;;;22.70;50.24;101795.66;4971226;28;123241;-70
2023/06/22 01:19:46;;;;;;;16.80;11.73;;;;;;;22.68;50.31;101786.84;4961516;28;124519;-70
2023/06/22 01:22:16;;;;;;;13.75;10.27;;;;;;;22.65;50.60;101787.06;4986948;28;115288;-70
2023/06/22 01:25:01;;;;;;;13.90;10.65;;;;;;;22.64;50.54;101790.78;4989892;28;115179;-72
2023/06/22 01:27:54;;;;;;;16.27;10.40;;;;;;;22.62;50.66;101792.75;5000466;28;123884;-70
2023/06/22 01:30:25;;;;;;;14.02;10.18;;;;;;;22.63;50.60;101786.34;4988718;28;124086;-69
2023/06/22 01:32:55;;;;;;;15.52;11.10;;;;;;;22.64;50.66;101784.47;4987448;28;114120;-71
2023/06/22 01:35:26;;;;;;;16.48;11.52;;;;;;;22.63;50.86;101789.03;4969923;28;114071;-70
2023/06/22 01:37:54;;;;;;;16.13;10.70;;;;;;;22.64;50.99;101796.16;4954992;28;123206;-71
2023/06/22 01:40:21;;;;;;;16.65;11.07;;;;;;;22.65;50.83;101791.63;4989726;28;123806;-70
2023/06/22 01:42:51;;;;;;;14.40;11.32;;;;;;;22.64;50.96;101790.78;4955921;28;113361;-70
2023/06/22 01:45:19;;;;;;;15.30;10.52;;;;;;;22.63;50.97;101783.63;4989407;28;114224;-70
2023/06/22 01:47:46;;;;;;;12.90;10.77;;;;;;;22.61;51.16;101774.81;4988955;28;122924;-70
2023/06/22 01:50:14;;;;;;;15.35;11.05;;;;;;;22.57;51.00;101778.75;4989313;28;124098;-71
2023/06/22 01:52:41;;;;;;;15.65;10.90;;;;;;;22.53;51.16;101777.28;4971889;28;113721;-70
2023/06/22 01:55:08;;;;;;;16.23;10.85;;;;;;;22.51;51.29;101777.41;4989584;28;113989;-70
2023/06/22 01:57:35;;;;;;;17.27;11.27;;;;;;;22.51;51.36;101774.69;4989247;28;125539;-70
2023/06/22 02:00:07;;;;;;;14.57;11.15;;;;;;;22.49;51.29;101770.38;4971112;28;123309;-70
2023/06/22 02:03:02;;;;;;;15.80;11.35;;;;;;;22.47;51.38;101777.75;4976749;28;113401;-72
2023/06/22 02:05:36;;;;;;;14.85;10.38;;;;;;;22.45;51.55;101774.31;4965287;28;114179;-70
2023/06/22 02:08:21;;;;;;;13.57;10.63;;;;;;;22.44;51.36;101772.63;4971210;28;124340;-70
2023/06/22 02:10:50;;;;;;;12.53;9.87;;;;;;;22.43;51.32;101776.28;4987590;28;123479;-70
2023/06/22 02:13:18;;;;;;;14.65;10.88;;;;;;;22.40;51.45;101777.41;4988870;28;115304;-70
2023/06/22 02:15:47;;;;;;;15.18;10.77;;;;;;;22.39;51.56;101774.81;4971904;28;117464;-70
2023/06/22 02:18:14;;;;;;;16.55;11.82;;;;;;;22.39;51.71;101772.97;4968444;28;123508;-70
2023/06/22 02:20:41;;;;;;;12.52;10.23;;;;;;;22.39;51.61;101770.28;4971060;28;122940;-70
2023/06/22 02:23:08;;;;;;;13.18;10.48;;;;;;;22.40;51.77;101771.16;4989164;28;114370;-70
2023/06/22 02:25:36;;;;;;;15.15;11.15;;;;;;;22.40;51.75;101771.16;4974721;28;113903;-71
2023/06/22 02:28:03;;;;;;;16.17;11.00;;;;;;;22.41;51.81;101770.16;4998799;28;124678;-70
2023/06/22 02:30:31;;;;;;;17.27;11.68;;;;;;;22.40;51.93;101763.06;4987631;28;122562;-70
2023/06/22 02:33:00;;;;;;;14.43;11.13;;;;;;;22.41;51.84;101762.06;4970452;28;113499;-70
2023/06/22 02:35:35;;;;;;;16.70;11.60;;;;;;;22.39;51.97;101764.03;4972914;28;112087;-70
2023/06/22 02:38:04;;;;;;;13.00;10.88;;;;;;;22.38;51.78;101759.59;4986570;28;124089;-70
2023/06/22 02:40:31;;;;;;;13.90;11.10;;;;;;;22.38;51.94;101756.91;4972206;28;124556;-70
2023/06/22 02:43:01;;;;;;;13.77;10.68;;;;;;;22.37;51.80;101755.19;4992196;28;114100;-70
2023/06/22 02:45:29;;;;;;;17.48;12.02;;;;;;;22.34;51.99;101757.16;4974441;28;113815;-70
2023/06/22 02:47:57;;;;;;;14.05;11.20;;;;;;;22.33;52.10;101749.19;4992075;28;123642;-70
2023/06/22 02:50:24;;;;;;;12.07;10.40;;;;;;;22.30;52.16;101746.72;4973995;28;123665;-70
2023/06/22 02:52:53;;;;;;;13.95;10.63;;;;;;;22.27;52.11;101745.13;4972356;28;113302;-70
2023/06/22 02:55:21;;;;;;;15.63;11.45;;;;;;;22.24;52.29;101748.03;4992048;28;114457;-70
2023/06/22 02:57:54;;;;;;;14.32;11.45;;;;;;;22.19;52.24;101736.78;4972711;28;123264;-71
2023/06/22 03:00:21;;;;;;;16.05;11.32;;;;;;;22.15;52.44;101729.88;4973435;28;124119;-71
2023/06/22 03:02:49;;;;;;;13.88;10.93;;;;;;;22.13;52.42;101737.25;4981155;28;115970;-71
2023/06/22 03:05:18;;;;;;;16.10;11.48;;;;;;;22.09;52.65;101742.03;4970028;28;114273;-70
2023/06/22 03:07:48;;;;;;;14.77;11.13;;;;;;;22.07;52.50;101737.75;4974888;28;98946;-70
2023/06/22 03:10:16;;;;;;;15.60;11.10;;;;;;;22.06;52.66;101741.44;4973206;28;122896;-70
2023/06/22 03:12:44;;;;;;;15.45;11.32;;;;;;;22.04;52.74;101737.97;4992122;28;114003;-71
2023/06/22 03:15:12;;;;;;;17.08;11.98;;;;;;;22.02;52.85;101734.53;4971866;28;112876;-71
2023/06/22 03:17:40;;;;;;;19.52;13.15;;;;;;;22.02;52.75;101734.53;4972181;28;123253;-73
2023/06/22 03:20:10;;;;;;;15.43;11.82;;;;;;;22.03;52.73;101731.72;4971918;28;123404;-70
2023/06/22 03:22:39;;;;;;;17.42;12.75;;;;;;;22.02;52.76;101718.34;4991289;28;114574;-70
2023/06/22 03:25:13;;;;;;;16.20;12.75;;;;;;;22.01;52.76;101711.25;4973367;28;112435;-70
2023/06/22 03:27:43;;;;;;;17.67;12.73;;;;;;;21.97;52.67;101724.97;4971267;28;123382;-70
2023/06/22 03:30:12;;;;;;;18.80;13.05;;;;;;;21.93;52.77;101726.22;4972222;28;123875;-71
2023/06/22 03:32:39;;;;;;;17.15;12.40;;;;;;;21.90;53.02;101721.06;4990738;28;114244;-71
2023/06/22 03:35:07;;;;;;;16.48;11.98;;;;;;;21.86;52.97;101722.28;4972337;28;112208;-71
2023/06/22 03:37:36;;;;;;;15.20;11.57;;;;;;;21.86;53.06;101730.38;4990312;28;125267;-71
2023/06/22 03:40:05;;;;;;;15.80;11.68;;;;;;;21.85;53.12;101720.59;4990255;28;126617;-71
2023/06/22 03:42:35;;;;;;;13.63;11.43;;;;;;;21.86;53.00;101719.59;4973315;28;114873;-71
2023/06/22 03:45:03;;;;;;;15.02;11.48;;;;;;;21.86;53.13;101714.19;4974056;28;113939;-71
2023/06/22 03:47:30;;;;;;;17.08;11.82;;;;;;;21.85;53.07;101712.50;4991229;28;124051;-71
2023/06/22 03:49:58;;;;;;;15.98;11.95;;;;;;;21.83;53.15;101714.44;4972927;28;123927;-71
2023/06/22 03:52:25;;;;;;;16.02;12.05;;;;;;;21.82;52.99;101707.31;4992062;28;115963;-71
2023/06/22 03:54:53;;;;;;;17.20;13.05;;;;;;;21.80;53.14;101709.28;4992351;28;114316;-71
2023/06/22 03:57:20;;;;;;;23.80;15.23;;;;;;;21.78;53.11;101716.66;4990907;28;124973;-71
2023/06/22 03:59:47;;;;;;;24.33;16.30;;;;;;;21.76;53.14;101721.31;4972611;28;123104;-71
2023/06/22 04:02:14;;;;;;;24.48;16.33;;;;;;;21.75;53.07;101716.88;4991204;28;114717;-71
2023/06/22 04:04:41;;;;;;;22.65;17.23;;;;;;;21.72;53.25;101707.19;4991092;28;114072;-71
2023/06/22 04:07:09;;;;;;;28.02;19.65;;;;;;;21.71;53.35;101710.00;4990944;28;124144;-71
2023/06/22 04:09:36;;;;;;;29.00;19.20;;;;;;;21.69;53.40;101707.44;4956732;28;122897;-71
2023/06/22 04:12:03;;;;;;;26.75;19.15;;;;;;;21.68;53.45;101710.25;4990944;28;114488;-71
2023/06/22 04:14:30;;;;;;;26.70;18.48;;;;;;;21.67;53.57;101703.16;4973076;28;115054;-70
2023/06/22 04:16:58;;;;;;;22.58;16.42;;;;;;;21.66;53.64;101706.81;4972665;28;124108;-71
2023/06/22 04:19:25;;;;;;;22.38;16.02;;;;;;;21.64;53.72;101700.69;4990953;28;123974;-71
2023/06/22 04:21:52;;;;;;;23.85;15.75;;;;;;;21.63;54.06;101701.69;4990962;28;114082;-71
2023/06/22 04:24:19;;;;;;;20.80;15.63;;;;;;;21.65;53.98;101699.72;4973255;28;114053;-71
2023/06/22 04:26:47;;;;;;;22.00;15.23;;;;;;;21.66;54.34;101701.41;5004032;28;124200;-71
2023/06/22 04:29:14;;;;;;;19.42;14.23;;;;;;;21.68;54.25;101700.34;4973166;28;124242;-71
2023/06/22 04:31:41;;;;;;;19.98;14.65;;;;;;;21.72;54.45;101706.34;4990266;28;114674;-71
2023/06/22 04:34:09;;;;;;;18.55;13.82;;;;;;;21.77;54.52;101704.13;4989731;28;114161;-71
2023/06/22 04:36:38;;;;;;;19.02;14.43;;;;;;;21.81;54.76;101700.19;4988628;28;124067;-71
2023/06/22 04:39:10;;;;;;;18.95;14.10;;;;;;;21.84;54.69;101704.50;4990608;28;124095;-71
2023/06/22 04:41:43;;;;;;;18.20;13.85;;;;;;;21.87;54.57;101694.34;4971798;28;115432;-71
2023/06/22 04:44:12;;;;;;;18.73;14.02;;;;;;;21.91;54.82;101695.81;4972231;28;115578;-71
2023/06/22 04:46:40;;;;;;;24.20;14.93;;;;;;;21.94;54.95;101698.28;4990263;28;125180;-71
2023/06/22 04:49:09;;;;;;;23.75;14.90;;;;;;;21.99;54.93;101697.03;4990495;28;124586;-71
2023/06/22 04:51:41;;;;;;;19.95;14.50;;;;;;;22.04;55.12;101690.31;4990746;28;114754;-71
2023/06/22 04:54:09;;;;;;;35.03;15.85;;;;;;;22.11;55.21;101696.94;4970822;28;113434;-70
2023/06/22 04:56:37;;;;;;;24.23;15.02;;;;;;;22.20;55.16;101689.91;4990306;28;123851;-70
2023/06/22 04:59:04;;;;;;;20.80;14.45;;;;;;;22.29;55.09;101694.59;4991825;28;124205;-71
2023/06/22 05:01:31;;;;;;;20.20;15.07;;;;;;;22.37;55.11;101695.81;4972658;28;114506;-71
2023/06/22 05:04:00;;;;;;;19.30;14.38;;;;;;;22.45;55.06;101701.44;4971235;28;112927;-72
2023/06/22 05:06:28;;;;;;;19.65;14.98;;;;;;;22.51;55.02;101698.25;4970104;28;122145;-71
2023/06/22 05:08:59;;;;;;;21.48;14.77;;;;;;;22.60;55.05;101705.56;4987638;28;125042;-73
2023/06/22 05:11:27;;;;;;;23.48;15.25;;;;;;;22.66;54.97;101696.97;4990050;28;114719;-71
2023/06/22 05:13:55;;;;;;;20.33;14.88;;;;;;;22.74;54.82;101694.50;4972430;28;113560;-71
2023/06/22 05:16:26;;;;;;;24.73;15.27;;;;;;;22.81;54.94;101704.78;4989748;28;123939;-70
2023/06/22 05:19:03;;;;;;;21.10;15.60;;;;;;;22.86;54.83;101697.16;4986036;28;123920;-71
2023/06/22 05:21:31;;;;;;;23.10;15.82;;;;;;;22.93;54.84;101703.75;4974001;28;113962;-71
2023/06/22 05:24:02;;;;;;;44.08;17.65;;;;;;;22.98;54.89;101701.53;4990628;28;114243;-70
2023/06/22 05:26:31;;;;;;;29.70;16.25;;;;;;;23.04;54.89;101703.75;5000181;28;123906;-71
2023/06/22 05:29:00;;;;;;;25.15;15.80;;;;;;;23.13;55.01;101700.28;4991909;28;124163;-71
2023/06/22 05:31:27;;;;;;;21.08;15.82;;;;;;;23.23;54.81;101710.31;4989018;28;115226;-71
2023/06/22 05:33:56;;;;;;;20.90;15.32;;;;;;;23.32;54.61;101714.94;4989785;28;114988;-71
2023/06/22 05:36:26;;;;;;;21.98;15.73;;;;;;;23.38;54.70;101709.00;4987004;28;124600;-71
2023/06/22 05:38:53;;;;;;;23.40;16.45;;;;;;;23.48;54.60;101715.31;4989279;28;123942;-71
2023/06/22 05:41:20;;;;;;;21.92;16.45;;;;;;;23.60;54.67;101723.34;4972307;28;113513;-71
2023/06/22 05:43:47;;;;;;;21.33;16.25;;;;;;;23.69;54.41;101727.97;4989482;28;114017;-71
2023/06/22 05:46:15;;;;;;;19.95;15.50;;;;;;;23.76;54.35;101723.75;4989446;28;124375;-71
2023/06/22 05:48:42;;;;;;;20.98;16.65;;;;;;;23.82;54.08;101712.41;4971218;28;123489;-71
2023/06/22 05:51:09;;;;;;;22.00;16.80;;;;;;;23.86;53.99;101703.03;4971611;28;114167;-71
2023/06/22 05:53:36;;;;;;;22.40;17.38;;;;;;;23.90;54.15;101704.50;4989728;28;114675;-71
2023/06/22 05:56:04;;;;;;;22.13;16.73;;;;;;;23.92;54.16;101698.91;4975325;28;124037;-73
2023/06/22 05:58:31;;;;;;;21.02;17.17;;;;;;;23.95;53.94;101705.94;4988508;28;124382;-71
2023/06/22 06:00:58;;;;;;;21.88;17.25;;;;;;;23.98;54.01;101705.63;4968406;28;114141;-71
2023/06/22 06:03:28;;;;;;;21.73;16.73;;;;;;;24.03;53.83;101714.22;4982682;28;113981;-71
2023/06/22 06:05:56;;;;;;;24.42;17.08;;;;;;;24.08;53.78;101717.38;4992522;28;124268;-71
2023/06/22 06:08:23;;;;;;;22.83;17.80;;;;;;;24.12;53.98;101718.81;4989953;28;123844;-71
2023/06/22 06:10:52;;;;;;;24.65;18.00;;;;;;;24.20;53.79;101716.28;4990000;28;114290;-71
2023/06/22 06:13:20;;;;;;;21.60;17.35;;;;;;;24.25;53.54;101718.59;4989216;28;114133;-71
2023/06/22 06:15:48;;;;;;;22.42;17.67;;;;;;;24.31;53.34;101711.75;4991742;28;124259;-72
2023/06/22 06:18:17;;;;;;;24.25;17.15;;;;;;;24.36;53.39;101704.09;4990492;28;125590;-71
2023/06/22 06:20:44;;;;;;;20.75;17.23;;;;;;;24.39;53.13;101698.38;4991067;28;115148;-72
2023/06/22 06:23:11;;;;;;;22.65;16.92;;;;;;;24.40;53.04;101700.09;4981295;28;114997;-71
2023/06/22 06:25:38;;;;;;;21.98;17.30;;;;;;;24.44;53.26;101706.97;4989136;28;123846;-71
2023/06/22 06:28:06;;;;;;;20.33;17.23;;;;;;;24.47;53.07;101709.41;4979483;28;122982;-71
2023/06/22 06:30:33;;;;;;;19.73;17.13;;;;;;;24.47;52.99;101699.41;4999306;28;114694;-71
2023/06/22 06:33:00;;;;;;;25.48;18.17;;;;;;;24.50;53.01;101698.25;4977061;28;114648;-71
2023/06/22 06:35:27;;;;;;;21.58;17.27;;;;;;;24.54;53.01;101697.03;4982287;28;123923;-71
2023/06/22 06:37:55;;;;;;;20.48;17.13;;;;;;;24.58;53.17;101701.19;4986618;28;123880;-71
2023/06/22 06:40:22;;;;;;;22.00;17.52;;;;;;;24.62;52.96;101693.59;4989886;28;114142;-72
2023/06/22 06:42:49;;;;;;;23.50;16.40;;;;;;;24.66;53.01;101700.47;4988519;28;113955;-71
2023/06/22 06:45:19;;;;;;;21.45;17.38;;;;;;;24.73;53.08;101692.63;4987808;28;124306;-71
2023/06/22 06:47:47;;;;;;;22.75;17.45;;;;;;;24.79;52.87;101694.75;4970562;28;124392;-71
2023/06/22 06:50:14;;;;;;;21.38;17.85;;;;;;;24.85;52.66;101694.22;4988328;28;114487;-72
2023/06/22 06:52:41;;;;;;;22.13;17.92;;;;;;;24.91;52.47;101692.81;4986939;28;113634;-71
2023/06/22 06:55:12;;;;;;;26.98;18.35;;;;;;;24.94;52.64;101695.19;4988126;28;124207;-72
2023/06/22 06:57:41;;;;;;;23.25;17.50;;;;;;;24.95;52.37;101697.78;4966385;28;124725;-71
2023/06/22 07:00:13;;;;;;;21.60;17.70;;;;;;;24.98;52.39;101697.50;4985971;28;114416;-71
2023/06/22 07:02:43;;;;;;;21.35;17.55;;;;;;;25.00;52.44;101698.22;4987551;28;114243;-72
2023/06/22 07:05:11;;;;;;;21.05;17.52;;;;;;;25.01;52.30;101683.66;4964586;28;122863;-71
2023/06/22 07:07:39;;;;;;;24.80;18.17;;;;;;;25.01;52.49;101688.22;4988256;28;123738;-71
2023/06/22 07:10:06;;;;;;;23.30;17.90;;;;;;;25.02;52.40;101679.94;4988278;28;116010;-72
2023/06/22 07:12:34;;;;;;;24.00;18.67;;;;;;;25.03;52.53;101681.69;4988648;28;114963;-72
2023/06/22 07:15:07;;;;;;;20.70;17.55;;;;;;;25.02;52.28;101674.53;4987572;28;124002;-72
2023/06/22 07:17:35;;;;;;;20.67;17.45;;;;;;;25.04;52.63;101677.09;4985489;28;123982;-72
2023/06/22 07:20:09;;;;;;;22.63;18.55;;;;;;;25.08;52.41;101666.84;4988429;28;114731;-72
2023/06/22 07:22:36;;;;;;;21.63;17.58;;;;;;;25.12;52.43;101662.81;4970471;28;113768;-72
2023/06/22 07:25:08;;;;;;;20.15;17.92;;;;;;;25.15;52.59;101673.41;4987803;28;124984;-71
2023/06/22 07:27:37;;;;;;;23.60;18.42;;;;;;;25.14;52.32;101660.81;5001586;28;123807;-72
2023/06/22 07:30:05;;;;;;;22.77;17.88;;;;;;;25.12;52.28;101663.69;4973590;28;114585;-71
2023/06/22 07:32:32;;;;;;;22.65;17.75;;;;;;;25.11;52.16;101661.09;4992008;28;114395;-71
2023/06/22 07:35:00;;;;;;;21.38;18.13;;;;;;;25.12;52.47;101662.81;4990471;28;123874;-71
2023/06/22 07:37:30;;;;;;;21.92;18.08;;;;;;;25.14;52.22;101655.41;4992379;28;124846;-72
2023/06/22 07:40:00;;;;;;;22.80;18.88;;;;;;;25.16;52.56;101664.25;4972313;28;114198;-72
2023/06/22 07:42:32;;;;;;;21.83;18.77;;;;;;;25.19;52.55;101666.69;4972828;28;114427;-72
2023/06/22 07:45:00;;;;;;;23.42;18.45;;;;;;;25.23;52.20;101654.56;4979876;28;123851;-72
2023/06/22 07:47:28;;;;;;;22.70;18.52;;;;;;;25.28;52.46;101665.84;4993974;28;126654;-71
2023/06/22 07:50:00;;;;;;;21.02;18.23;;;;;;;25.33;52.28;101655.41;4973371;28;113502;-71
2023/06/22 07:52:29;;;;;;;21.20;17.70;;;;;;;25.40;52.39;101656.53;4969395;28;114499;-71
2023/06/22 07:54:56;;;;;;;22.02;17.02;;;;;;;25.47;52.40;101661.34;4973474;28;123987;-72
2023/06/22 07:57:31;;;;;;;21.60;18.27;;;;;;;25.53;52.25;101660.78;4972892;28;124495;-72
2023/06/22 08:00:13;;;;;;;21.45;17.98;;;;;;;25.60;52.04;101640.22;4988033;28;115294;-70
2023/06/22 08:02:42;;;;;;;21.73;17.92;;;;;;;25.68;51.65;101636.75;4991669;28;115193;-71
2023/06/22 08:05:09;;;;;;;24.90;17.92;;;;;;;25.76;51.53;101634.97;4969745;28;123637;-71
2023/06/22 08:07:49;;;;;;;22.73;17.95;;;;;;;25.84;51.53;101613.41;4987803;28;123977;-71
2023/06/22 08:10:17;;;;;;;23.63;18.10;;;;;;;25.94;51.45;101607.09;4995694;28;114552;-71
2023/06/22 08:12:44;;;;;;;21.67;18.23;;;;;;;26.04;51.72;101605.16;4986909;28;113828;-71
2023/06/22 08:15:11;;;;;;;22.73;17.95;;;;;;;26.14;51.30;101605.94;4994276;28;124010;-71
2023/06/22 08:17:39;;;;;;;23.20;17.35;;;;;;;26.22;50.77;101602.50;4994618;28;124450;-69
2023/06/22 08:20:14;;;;;;;19.92;16.42;;;;;;;26.28;50.58;101611.91;4993781;28;115469;-70
2023/06/22 08:22:43;;;;;;;;;;;;;;;26.32;50.92;101605.16;4992062;28;114069;-70
2023/06/22 08:25:11;;;;;;;24.20;17.73;;;;;;;26.41;50.79;101596.06;4988991;28;123651;-70
2023/06/22 08:27:38;;;;;;;22.92;18.90;;;;;;;26.51;50.90;101590.56;4973014;28;126366;-70
2023/06/22 08:30:07;;;;;;;24.83;18.02;;;;;;;26.57;50.96;101596.22;4990936;28;113842;-71
2023/06/22 08:32:34;;;;;;;22.55;17.63;;;;;;;26.64;50.95;101587.50;4982399;28;114235;-70
2023/06/22 08:35:02;;;;;;;18.20;16.30;;;;;;;26.70;50.07;101589.56;4990076;28;123243;-70
2023/06/22 08:37:35;;;;;;;21.23;17.48;;;;;;;26.74;50.28;101586.38;4971587;28;122859;-70
2023/06/22 08:40:05;;;;;;;19.33;16.85;;;;;;;26.79;49.88;101580.47;4987095;28;114513;-70
2023/06/22 08:42:33;;;;;;;19.17;16.05;;;;;;;26.83;49.55;101584.56;4988122;28;114269;-71
2023/06/22 08:45:00;;;;;;;20.13;16.17;;;;;;;26.86;49.67;101578.84;4981811;28;124002;-71
2023/06/22 08:47:28;;;;;;;21.10;17.17;;;;;;;26.91;49.47;101571.03;4972060;28;124117;-70
2023/06/22 08:49:55;;;;;;;22.38;17.23;;;;;;;26.97;49.50;101570.44;4988591;28;116093;-71
2023/06/22 08:52:23;;;;;;;20.30;16.13;;;;;;;27.00;49.01;101575.53;4990896;28;115407;-70
2023/06/22 08:54:51;;;;;;;21.05;17.45;;;;;;;27.05;49.37;101576.91;4972987;28;124088;-70
2023/06/22 08:57:18;;;;;;;20.35;17.00;;;;;;;27.12;49.10;101567.09;4989999;28;124568;-71
2023/06/22 08:59:45;;;;;;;21.92;17.95;;;;;;;27.19;49.33;101569.03;4988979;28;114293;-71
2023/06/22 09:02:12;;;;;;;19.48;16.23;;;;;;;27.27;48.71;101565.53;4989878;28;114251;-71
2023/06/22 09:04:40;;;;;;;19.55;16.80;;;;;;;27.31;48.73;101561.50;4982934;28;122980;-71
2023/06/22 09:07:07;;;;;;;22.35;17.30;;;;;;;27.33;48.83;101559.47;4972155;28;122740;-70
2023/06/22 09:09:35;;;;;;;20.77;17.17;;;;;;;27.37;48.31;101560.84;4991886;28;114323;-70
2023/06/22 09:12:02;;;;;;;33.78;18.42;;;;;;;27.39;48.15;101557.97;4972616;28;114846;-71
2023/06/22 09:14:29;;;;;;;22.00;17.00;;;;;;;27.40;48.17;101561.53;4984840;28;124251;-70
2023/06/22 09:17:00;;;;;;;18.80;16.25;;;;;;;27.42;48.10;101562.22;4953227;28;124154;-71
2023/06/22 09:19:27;;;;;;;19.15;16.55;;;;;;;27.44;48.72;101560.19;4987766;28;114855;-71
2023/06/22 09:21:54;;;;;;;22.77;16.95;;;;;;;27.45;47.87;101556.47;4971903;28;112857;-71
2023/06/22 09:24:21;;;;;;;22.90;17.20;;;;;;;27.45;48.13;101559.19;4972010;28;124291;-71
2023/06/22 09:26:49;;;;;;;25.45;17.50;;;;;;;27.43;48.07;101553.06;4985354;28;124702;-71
2023/06/22 09:29:16;;;;;;;21.77;17.23;;;;;;;27.44;48.09;101554.75;4977402;28;114267;-72
2023/06/22 09:31:44;;;;;;;20.85;17.73;;;;;;;27.44;48.18;101550.13;4990050;28;115892;-72
2023/06/22 09:34:11;;;;;;;19.77;17.67;;;;;;;27.43;48.07;101553.91;4989512;28;123995;-72
2023/06/22 09:36:40;;;;;;;23.77;17.70;;;;;;;27.40;47.85;101547.94;4989589;28;123838;-72
2023/06/22 09:39:07;;;;;;;24.13;17.10;;;;;;;27.37;47.74;101560.84;4989270;28;115573;-71
2023/06/22 09:41:34;;;;;;;21.38;17.27;;;;;;;27.35;47.94;101562.88;4989420;28;115060;-74
2023/06/22 09:44:02;;;;;;;27.33;17.60;;;;;;;27.32;47.64;101557.75;4989386;28;123825;-73
2023/06/22 09:46:29;;;;;;;22.15;15.77;;;;;;;27.28;47.67;101553.66;4988071;28;124788;-73
2023/06/22 09:48:56;;;;;;;22.10;14.77;;;;;;;27.24;47.39;101554.97;4987755;28;114616;-73
2023/06/22 09:51:23;;;;;;;16.60;14.73;;;;;;;27.20;46.95;101559.00;4988685;28;113975;-73
2023/06/22 09:53:52;;;;;;;17.80;13.93;;;;;;;27.13;47.07;101555.22;4987817;28;123969;-73
2023/06/22 09:56:19;;;;;;;16.10;13.80;;;;;;;27.09;47.23;101551.97;4971122;28;124414;-73
2023/06/22 09:58:47;;;;;;;14.77;12.88;;;;;;;27.07;47.07;101547.69;4985079;28;114069;-73
2023/06/22 10:01:14;;;;;;;16.80;13.32;;;;;;;27.05;46.70;101545.16;4989709;28;115019;-74
2023/06/22 10:03:42;;;;;;;15.20;12.93;;;;;;;27.03;46.71;101540.88;4988215;28;124444;-73
2023/06/22 10:06:09;;;;;;;14.98;12.38;;;;;;;26.98;47.09;101544.94;4988562;28;124858;-73
2023/06/22 10:08:36;;;;;;;15.50;13.20;;;;;;;26.94;46.75;101542.69;4995160;28;114978;-74
2023/06/22 10:11:03;;;;;;;17.10;13.15;;;;;;;26.91;46.97;101543.84;4989038;28;114640;-73
2023/06/22 10:13:31;;;;;;;15.90;12.50;;;;;;;26.89;47.16;101551.31;4988626;28;124572;-74
2023/06/22 10:15:58;;;;;;;27.15;14.20;;;;;;;26.87;47.36;101547.91;4988659;28;125315;-73
2023/06/22 10:18:25;;;;;;;15.13;13.52;;;;;;;26.86;47.31;101546.22;4989038;28;114459;-73
2023/06/22 10:20:52;;;;;;;19.38;15.07;;;;;;;26.86;47.76;101543.50;4994313;28;113723;-73
2023/06/22 10:23:20;;;;;;;24.67;15.10;;;;;;;26.87;47.66;101537.03;4988819;28;124310;-73
2023/06/22 10:25:47;;;;;;;20.58;15.88;;;;;;;26.87;48.05;101537.03;4975085;28;123764;-73
2023/06/22 10:28:15;;;;;;;18.00;16.05;;;;;;;26.84;47.80;101526.47;4975830;28;115399;-73
2023/06/22 10:30:43;;;;;;;20.98;16.60;;;;;;;26.84;48.27;101526.47;4969600;28;115300;-73
2023/06/22 10:33:11;;;;;;;19.75;16.35;;;;;;;26.83;47.87;101519.34;4988163;28;123790;-74
2023/06/22 10:35:39;;;;;;;20.52;15.88;;;;;;;26.81;47.81;101518.66;4988229;28;123747;-73
2023/06/22 10:38:06;;;;;;;33.17;18.13;;;;;;;26.78;48.13;101516.25;4974145;28;113622;-73
2023/06/22 10:40:34;;;;;;;28.88;17.30;;;;;;;26.80;48.18;101519.66;4987700;28;114797;-74
2023/06/22 10:43:01;;;;;;;21.02;16.60;;;;;;;26.79;48.10;101512.53;4955503;28;123149;-72
2023/06/22 10:45:28;;;;;;;18.27;15.48;;;;;;;26.79;48.28;101507.09;4992059;28;124815;-72
2023/06/22 10:47:56;;;;;;;18.05;16.08;;;;;;;26.79;48.29;101517.97;4971638;28;114179;-72
2023/06/22 10:50:25;;;;;;;17.65;15.48;;;;;;;26.79;48.12;101518.81;4970855;28;113014;-73
2023/06/22 10:52:54;;;;;;;17.58;14.45;;;;;;;26.79;48.04;101517.97;4953853;28;124417;-72
2023/06/22 10:55:23;;;;;;;19.85;15.13;;;;;;;26.79;48.17;101517.97;4985903;28;123764;-72
2023/06/22 10:57:50;;;;;;;19.08;14.50;;;;;;;26.79;47.99;101524.25;4971271;28;113353;-72
2023/06/22 11:00:17;;;;;;;20.48;14.27;;;;;;;26.80;48.02;101530.53;4971951;28;113885;-72
2023/06/22 11:02:44;;;;;;;16.85;14.00;;;;;;;26.80;47.96;101536.84;4973615;28;124455;-73
2023/06/22 11:05:12;;;;;;;18.27;13.48;;;;;;;26.80;47.93;101546.84;4989081;28;124092;-72
2023/06/22 11:07:43;;;;;;;15.48;13.55;;;;;;;26.79;47.80;101558.72;4992318;28;114757;-72
2023/06/22 11:10:12;;;;;;;15.38;13.60;;;;;;;26.77;47.70;101566.19;4992799;28;113824;-72